Time;durP1;ratioP1;P1;durP2;ratioP2;P2;SDS_P1;SDS_P2;PMS_P1;PMS_P2;Temp;Humidity;BMP_temperature;BMP_pressure;BME280_temperature;BME280_humidity;BME280_pressure;Samples;Min_cycle;Max_cycle;Signal;HPM_P1;HPM_P2
2023/01/27 00:03:47;;;;;;;0.28;0.28;;;;;;;-0.55;85.88;101271.31;10404844;28;20046;-85
2023/01/27 00:08:50;;;;;;;0.50;0.40;;;;;;;-0.41;86.50;101272.25;10404592;28;20038;-85
2023/01/27 00:13:52;;;;;;;0.22;0.22;;;;;;;-0.34;86.86;101279.41;10411018;28;20057;-84
2023/01/27 00:18:54;;;;;;;0.57;0.40;;;;;;;-0.31;86.38;101281.69;10417669;28;20505;-85
2023/01/27 00:29:17;;;;;;;0.85;0.10;;;;;;;-0.32;85.80;101285.44;10404150;28;20033;-86
2023/01/27 00:34:19;;;;;;;0.70;0.40;;;;;;;-0.46;85.75;101291.72;10404806;28;20156;-84
2023/01/27 00:39:21;;;;;;;0.98;0.40;;;;;;;-0.49;85.73;101292.13;10402925;28;20049;-83
2023/01/27 00:44:23;;;;;;;0.75;0.30;;;;;;;-0.68;84.82;101306.22;10403002;28;20049;-85
2023/01/27 00:49:25;;;;;;;0.40;0.40;;;;;;;-0.82;84.00;101304.41;10402791;28;20192;-85
2023/01/27 00:54:28;;;;;;;0.13;0.10;;;;;;;-0.93;84.50;101322.72;10404524;28;20078;-84
2023/01/27 00:59:30;;;;;;;0.30;0.30;;;;;;;-0.88;84.15;101324.84;10403550;28;20046;-85
2023/01/27 01:04:32;;;;;;;1.63;0.40;;;;;;;-0.81;84.21;101335.72;10402486;28;20407;-86
2023/01/27 01:09:34;;;;;;;1.75;0.68;;;;;;;-0.97;84.31;101328.69;10403321;28;20523;-85
2023/01/27 01:14:39;;;;;;;0.28;0.28;;;;;;;-1.04;84.51;101327.75;10402521;28;20049;-85
2023/01/27 01:19:42;;;;;;;0.60;0.50;;;;;;;-0.95;84.83;101335.56;10402300;28;20034;-85
2023/01/27 01:24:44;;;;;;;0.45;0.45;;;;;;;-1.03;85.10;101351.84;10404019;28;20053;-84
2023/01/27 01:29:48;;;;;;;0.85;0.60;;;;;;;-1.01;85.56;101349.78;10401931;28;20038;-85
2023/01/27 01:34:54;;;;;;;0.57;0.57;;;;;;;-0.94;85.23;101360.63;10392360;28;20041;-84
2023/01/27 01:40:00;;;;;;;0.50;0.50;;;;;;;-0.96;85.23;101362.69;10408171;28;20068;-85
2023/01/27 01:45:30;;;;;;;0.50;0.50;;;;;;;-1.04;84.98;101374.41;10392450;28;20061;-84
2023/01/27 01:50:34;;;;;;;1.63;0.50;;;;;;;-1.14;84.97;101376.53;10408663;28;20493;-86
2023/01/27 01:55:41;;;;;;;0.65;0.50;;;;;;;-1.19;85.80;101376.25;10376620;28;20531;-85
2023/01/27 02:01:08;;;;;;;1.67;0.50;;;;;;;-1.34;85.42;101384.34;10408655;28;20030;-84
2023/01/27 02:06:10;;;;;;;0.50;0.35;;;;;;;-1.20;85.64;101387.22;10407742;28;20465;-86
2023/01/27 02:11:13;;;;;;;2.05;0.40;;;;;;;-1.13;85.56;101399.75;10408169;28;20068;-85
2023/01/27 02:16:15;;;;;;;0.40;0.40;;;;;;;-1.11;85.95;101388.78;10391807;28;20046;-86
2023/01/27 02:21:18;;;;;;;0.85;0.45;;;;;;;-1.14;85.58;101397.25;10409436;28;20524;-84
2023/01/27 02:26:27;;;;;;;0.50;0.50;;;;;;;-1.17;85.75;101401.16;10407208;28;20057;-85
2023/01/27 02:31:30;;;;;;;0.40;0.40;;;;;;;-1.19;85.80;101394.28;10374712;28;20045;-84
2023/01/27 02:36:44;;;;;;;0.95;0.40;;;;;;;-1.14;85.64;101410.72;10408113;28;20072;-85
2023/01/27 02:41:53;;;;;;;0.50;0.50;;;;;;;-1.19;85.74;101422.03;10406746;28;20050;-85
2023/01/27 02:47:01;;;;;;;0.77;0.50;;;;;;;-1.45;85.45;101422.47;10406100;28;20046;-85
2023/01/27 02:52:04;;;;;;;0.50;0.50;;;;;;;-1.37;86.20;101425.09;10406551;28;20412;-85
2023/01/27 02:57:07;;;;;;;0.90;0.50;;;;;;;-1.56;85.72;101447.97;10405977;28;20049;-85
2023/01/27 03:02:35;;;;;;;1.37;0.50;;;;;;;-1.62;86.34;101462.16;10406363;28;20038;-85
2023/01/27 03:07:38;;;;;;;0.20;0.15;;;;;;;-1.63;86.64;101463.16;10406965;28;20807;-86
2023/01/27 03:12:40;;;;;;;1.10;0.60;;;;;;;-1.65;86.48;101451.75;10407101;28;20050;-85
2023/01/27 03:23:03;;;;;;;0.40;0.40;;;;;;;-1.64;87.83;101456.13;10436498;28;20132;-84
2023/01/27 03:28:06;;;;;;;0.40;0.40;;;;;;;-1.28;87.04;101450.91;10437475;28;20110;-84
2023/01/27 03:33:17;;;;;;;0.98;0.80;;;;;;;-1.30;87.09;101461.00;10432056;28;20137;-84
2023/01/27 03:49:05;;;;;;;0.65;0.65;;;;;;;-1.43;87.47;101481.50;10414946;28;20048;-85
2023/01/27 03:54:08;;;;;;;1.23;0.63;;;;;;;-1.42;87.81;101477.78;10405948;28;20424;-84
2023/01/27 03:59:10;;;;;;;0.70;0.60;;;;;;;-1.72;86.69;101485.78;10406584;28;20044;-85
2023/01/27 04:09:35;;;;;;;0.60;0.60;;;;;;;-1.71;87.63;101500.06;10406568;28;20527;-86
2023/01/27 04:14:40;;;;;;;2.05;0.50;;;;;;;-1.84;87.35;101503.34;10405293;28;20057;-86
2023/01/27 04:19:43;;;;;;;2.38;0.85;;;;;;;-1.49;88.08;101496.53;10405611;28;20038;-85
2023/01/27 04:24:45;;;;;;;0.88;0.88;;;;;;;-1.54;87.36;101510.53;10403622;28;20042;-86
2023/01/27 04:29:47;;;;;;;2.22;0.70;;;;;;;-1.75;87.43;101521.09;10405408;28;20080;-85
2023/01/27 04:34:49;;;;;;;2.00;0.70;;;;;;;-1.78;87.47;101534.06;10404756;28;20054;-85
2023/01/27 04:39:52;;;;;;;0.93;0.40;;;;;;;-1.67;87.31;101531.81;10403195;28;20050;-85
2023/01/27 04:44:54;;;;;;;0.50;0.50;;;;;;;-1.72;87.13;101522.63;10403265;28;20401;-86
2023/01/27 04:49:56;;;;;;;4.65;1.33;;;;;;;-1.87;87.38;101541.38;10403857;28;20053;-85
2023/01/27 04:54:58;;;;;;;3.28;1.20;;;;;;;-1.82;87.31;101538.97;10404665;28;20042;-86
2023/01/27 05:00:00;;;;;;;0.50;0.50;;;;;;;-1.91;86.83;101542.72;10405062;28;20049;-86
2023/01/27 05:05:03;;;;;;;0.50;0.50;;;;;;;-1.91;86.95;101545.41;10403759;28;20049;-86
2023/01/27 05:10:06;;;;;;;0.68;0.40;;;;;;;-2.13;86.59;101558.66;10393167;28;20053;-84
2023/01/27 05:15:08;;;;;;;1.33;0.57;;;;;;;-2.21;86.94;101572.13;10411780;28;20054;-86
2023/01/27 05:20:11;;;;;;;0.70;0.57;;;;;;;-2.23;87.04;101563.41;10411814;28;20496;-85
2023/01/27 05:25:13;;;;;;;0.63;0.50;;;;;;;-2.12;87.27;101575.63;10411158;28;20420;-85
2023/01/27 05:30:15;;;;;;;0.43;0.43;;;;;;;-1.97;87.24;101568.47;10410140;28;20053;-85
2023/01/27 05:35:18;;;;;;;0.77;0.77;;;;;;;-1.93;86.80;101577.88;10410634;28;20053;-85
2023/01/27 05:40:20;;;;;;;2.15;1.10;;;;;;;-1.91;87.08;101593.81;10409026;28;20460;-84
2023/01/27 05:45:22;;;;;;;1.27;0.80;;;;;;;-1.84;86.87;101598.34;10411175;28;20061;-84
2023/01/27 05:50:24;;;;;;;0.60;0.60;;;;;;;-1.94;86.76;101599.56;10409574;28;20042;-85
2023/01/27 05:55:26;;;;;;;0.65;0.65;;;;;;;-1.95;87.20;101614.88;10410462;28;20397;-85
2023/01/27 06:00:28;;;;;;;0.95;0.70;;;;;;;-2.10;87.26;101621.16;10409578;28;20069;-86
2023/01/27 06:05:31;;;;;;;1.60;1.05;;;;;;;-2.11;86.80;101625.69;10409528;28;20435;-85
2023/01/27 06:10:36;;;;;;;1.23;1.13;;;;;;;-2.14;86.82;101620.66;10407770;28;20072;-85
2023/01/27 06:15:43;;;;;;;1.60;0.88;;;;;;;-2.43;86.80;101632.00;10409545;28;20042;-86
2023/01/27 06:20:45;;;;;;;1.00;0.90;;;;;;;-2.20;87.50;101642.88;10407242;28;20053;-84
2023/01/27 06:25:48;;;;;;;1.48;1.27;;;;;;;-1.97;87.42;101645.66;10409169;28;20064;-85
2023/01/27 06:30:51;;;;;;;0.88;0.85;;;;;;;-1.97;86.60;101656.41;10408471;28;20038;-86
2023/01/27 06:36:03;;;;;;;0.77;0.70;;;;;;;-1.94;86.13;101658.75;10408489;28;20045;-86
2023/01/27 06:41:05;;;;;;;1.63;0.90;;;;;;;-2.09;85.79;101671.22;10408296;28;20056;-84
2023/01/27 06:46:08;;;;;;;1.30;0.82;;;;;;;-2.15;86.38;101676.28;10407981;28;20042;-85
2023/01/27 06:51:10;;;;;;;0.80;0.70;;;;;;;-2.17;86.51;101681.00;10406378;28;20413;-85
2023/01/27 06:56:12;;;;;;;3.20;1.17;;;;;;;-2.24;86.31;101682.72;10407462;28;20046;-86
2023/01/27 07:01:14;;;;;;;2.22;1.00;;;;;;;-2.31;86.22;101689.78;10408074;28;20061;-85
2023/01/27 07:06:17;;;;;;;0.88;0.88;;;;;;;-2.55;86.66;101706.78;10391046;28;20096;-84
2023/01/27 07:11:19;;;;;;;1.17;1.08;;;;;;;-2.68;87.28;101716.34;10406868;28;20057;-84
2023/01/27 07:16:22;;;;;;;2.03;1.33;;;;;;;-2.68;87.71;101719.88;10406947;28;20050;-84
2023/01/27 07:21:24;;;;;;;1.80;1.48;;;;;;;-2.70;88.26;101721.91;10406167;28;20053;-85
2023/01/27 07:26:27;;;;;;;1.30;0.98;;;;;;;-2.79;88.38;101729.09;10406597;28;20054;-85
2023/01/27 07:31:29;;;;;;;2.22;1.10;;;;;;;-2.84;88.34;101731.44;10405914;28;20519;-84
2023/01/27 07:36:31;;;;;;;1.25;0.60;;;;;;;-2.88;88.31;101730.13;10406125;28;20060;-83
2023/01/27 07:41:33;;;;;;;0.43;0.43;;;;;;;-2.84;88.87;101739.50;10402564;28;20069;-85
2023/01/27 07:46:37;;;;;;;0.70;0.70;;;;;;;-2.97;88.44;101754.44;10403316;28;20045;-84
2023/01/27 07:51:39;;;;;;;1.00;0.60;;;;;;;-2.94;88.85;101763.00;10405082;28;20050;-85
2023/01/27 07:56:41;;;;;;;1.13;0.73;;;;;;;-3.05;89.09;101766.00;10403832;28;20042;-84
2023/01/27 08:01:43;;;;;;;1.73;0.90;;;;;;;-3.01;89.88;101771.88;10404206;28;20056;-85
2023/01/27 08:06:46;;;;;;;1.08;0.98;;;;;;;-3.04;90.04;101770.38;10405328;28;20535;-86
2023/01/27 08:11:48;;;;;;;0.82;0.60;;;;;;;-2.99;90.30;101776.06;10406937;28;20540;-85
2023/01/27 08:16:50;;;;;;;0.50;0.50;;;;;;;-2.99;90.43;101783.28;10405672;28;20508;-86
2023/01/27 08:21:52;;;;;;;3.15;0.88;;;;;;;-2.95;90.02;101790.88;10404647;28;20041;-87
2023/01/27 08:26:55;;;;;;;0.80;0.73;;;;;;;-3.06;90.02;101783.13;10403149;28;20412;-85
2023/01/27 08:31:57;;;;;;;1.92;1.20;;;;;;;-2.99;89.68;101802.09;10402983;28;20050;-86
2023/01/27 08:37:00;;;;;;;1.88;0.82;;;;;;;-3.03;89.69;101806.94;10405280;28;20049;-84
2023/01/27 08:42:02;;;;;;;0.93;0.77;;;;;;;-3.16;89.45;101820.81;10408349;28;20054;-84
2023/01/27 08:47:04;;;;;;;0.55;0.55;;;;;;;-3.10;89.59;101819.38;10412957;28;20042;-85
2023/01/27 08:52:06;;;;;;;0.80;0.80;;;;;;;-3.14;89.22;101815.28;10413096;28;20424;-85
2023/01/27 08:57:08;;;;;;;0.50;0.50;;;;;;;-3.10;89.62;101825.56;10410881;28;20042;-84
2023/01/27 09:02:12;;;;;;;1.85;1.05;;;;;;;-3.04;89.09;101829.44;10410568;28;20042;-86
2023/01/27 09:07:17;;;;;;;3.25;0.93;;;;;;;-2.99;89.40;101821.72;10410900;28;20404;-85
2023/01/27 09:12:19;;;;;;;2.58;1.23;;;;;;;-2.94;89.51;101832.00;10411740;28;20501;-85
2023/01/27 09:17:21;;;;;;;1.55;1.05;;;;;;;-2.95;89.17;101820.41;10409851;28;20428;-86
2023/01/27 09:22:23;;;;;;;1.98;1.08;;;;;;;-2.97;89.05;101817.03;10410990;28;20512;-85
2023/01/27 09:27:26;;;;;;;1.27;1.17;;;;;;;-2.87;89.52;101816.91;10411177;28;20048;-84
2023/01/27 09:32:28;;;;;;;1.10;1.00;;;;;;;-2.78;89.63;101819.44;10411272;28;20318;-85
2023/01/27 09:37:38;;;;;;;1.98;1.30;;;;;;;-2.76;89.67;101830.88;10393495;28;20045;-85
2023/01/27 09:42:40;;;;;;;1.08;0.98;;;;;;;-2.78;89.38;101837.38;10410303;28;20544;-86
2023/01/27 09:47:43;;;;;;;1.75;0.90;;;;;;;-2.85;89.74;101847.94;10410258;28;20058;-85
2023/01/27 09:53:04;;;;;;;3.60;1.13;;;;;;;-2.86;89.24;101851.66;10408339;28;20042;-84
2023/01/27 09:58:57;;;;;;;3.28;0.90;;;;;;;-2.94;88.94;101850.78;10409774;28;20496;-86
2023/01/27 10:04:18;;;;;;;1.02;0.70;;;;;;;-3.12;88.90;101845.53;10399794;28;20065;-84
2023/01/27 10:09:44;;;;;;;1.58;0.77;;;;;;;-3.10;89.07;101838.16;10409423;28;20044;-86
2023/01/27 10:15:09;;;;;;;2.90;0.82;;;;;;;-3.00;89.43;101844.22;10409085;28;20050;-85
2023/01/27 10:20:36;;;;;;;0.90;0.65;;;;;;;-2.98;89.23;101838.69;10408934;28;20041;-85
2023/01/27 10:25:47;;;;;;;1.45;1.10;;;;;;;-2.99;88.79;101839.69;10390810;28;20046;-86
2023/01/27 10:31:19;;;;;;;1.38;0.88;;;;;;;-3.03;89.53;101844.53;10407243;28;20362;-86
2023/01/27 10:36:28;;;;;;;0.93;0.80;;;;;;;-3.06;89.74;101847.56;10406455;28;20046;-86
2023/01/27 10:42:01;;;;;;;1.00;0.85;;;;;;;-3.03;90.14;101853.44;10407892;28;20050;-85
2023/01/27 10:47:24;;;;;;;2.45;1.20;;;;;;;-2.73;89.57;101861.94;10407125;28;20061;-85
2023/01/27 10:52:33;;;;;;;1.30;1.08;;;;;;;-2.75;89.51;101862.09;10396116;28;20046;-84
2023/01/27 10:57:52;;;;;;;1.17;0.90;;;;;;;-2.75;89.35;101858.56;10406425;28;20057;-85
2023/01/27 11:03:05;;;;;;;1.63;0.90;;;;;;;-2.80;89.18;101866.25;10412029;28;20037;-84
2023/01/27 11:08:14;;;;;;;3.22;1.60;;;;;;;-2.86;89.84;101862.38;10425009;28;20053;-85
2023/01/27 11:13:16;;;;;;;1.75;1.17;;;;;;;-2.84;89.46;101860.38;10404977;28;20056;-85
2023/01/27 11:18:24;;;;;;;1.40;1.30;;;;;;;-2.86;89.32;101869.59;10415502;28;20075;-85
2023/01/27 11:23:29;;;;;;;3.13;1.48;;;;;;;-2.92;89.88;101876.47;10397457;28;20052;-84
2023/01/27 11:28:41;;;;;;;1.10;1.00;;;;;;;-2.97;89.82;101886.84;10413445;28;20136;-85
2023/01/27 11:33:46;;;;;;;1.40;1.30;;;;;;;-2.98;89.68;101884.31;10411075;28;20042;-85
2023/01/27 11:38:48;;;;;;;1.90;1.08;;;;;;;-3.06;89.52;101888.66;10409925;28;20046;-86
2023/01/27 11:43:50;;;;;;;2.00;0.93;;;;;;;-3.04;89.60;101897.41;10416721;28;20085;-85
2023/01/27 11:48:56;;;;;;;1.80;1.25;;;;;;;-2.94;89.34;101897.28;10406647;28;20061;-84
2023/01/27 11:54:07;;;;;;;3.65;1.55;;;;;;;-3.00;89.22;101905.13;10403686;28;20041;-84
2023/01/27 11:59:26;;;;;;;1.58;1.40;;;;;;;-2.94;89.22;101907.19;10405005;28;20046;-85
2023/01/27 12:04:37;;;;;;;1.70;1.60;;;;;;;-2.97;89.54;101915.53;10403891;28;20060;-86
2023/01/27 12:09:41;;;;;;;1.92;1.73;;;;;;;-2.97;89.65;101912.84;10404658;28;20049;-85
2023/01/27 12:14:54;;;;;;;2.13;1.45;;;;;;;-3.05;89.79;101916.38;10404020;28;20520;-87
2023/01/27 12:20:02;;;;;;;1.77;1.10;;;;;;;-3.10;89.88;101914.16;10404350;28;20042;-84
2023/01/27 12:25:12;;;;;;;1.90;1.38;;;;;;;-3.17;89.37;101906.91;10403222;28;20054;-85
2023/01/27 12:30:26;;;;;;;1.52;1.35;;;;;;;-3.17;89.47;101909.59;10402821;28;20034;-86
2023/01/27 12:35:33;;;;;;;2.08;1.58;;;;;;;-3.10;89.81;101908.78;10386502;28;20037;-85
2023/01/27 12:40:41;;;;;;;1.40;1.02;;;;;;;-3.13;90.33;101913.63;10401592;28;20057;-86
2023/01/27 12:45:43;;;;;;;2.38;1.40;;;;;;;-3.11;90.35;101923.22;10386023;28;20042;-86
2023/01/27 12:50:48;;;;;;;1.65;1.50;;;;;;;-3.08;90.67;101922.06;10402237;28;20069;-86
2023/01/27 12:56:06;;;;;;;2.97;1.73;;;;;;;-3.08;90.46;101922.06;10403807;28;20052;-85
2023/01/27 13:01:32;;;;;;;3.85;1.80;;;;;;;-3.10;90.84;101918.69;10396447;28;20034;-83
2023/01/27 13:06:42;;;;;;;1.23;1.10;;;;;;;-3.06;91.29;101923.56;10402406;28;20049;-85
2023/01/27 13:11:44;;;;;;;2.78;1.50;;;;;;;-3.16;91.08;101922.00;10403654;28;20126;-84
2023/01/27 13:16:54;;;;;;;2.75;1.40;;;;;;;-2.67;91.65;101924.91;10403505;28;20045;-86
2023/01/27 13:21:57;;;;;;;1.20;1.10;;;;;;;-2.39;90.34;101914.75;10402892;28;20038;-84
2023/01/27 13:27:01;;;;;;;2.20;0.90;;;;;;;-2.80;89.63;101918.13;10402718;28;20049;-84
2023/01/27 13:32:03;;;;;;;2.15;0.95;;;;;;;-3.01;89.45;101922.25;10392444;28;20042;-85
2023/01/27 13:37:12;;;;;;;1.05;1.00;;;;;;;-3.07;90.04;101947.91;10409865;28;20042;-86
2023/01/27 13:42:27;;;;;;;1.05;0.95;;;;;;;-3.09;90.27;101960.66;10409799;28;20056;-85
2023/01/27 13:47:38;;;;;;;0.90;0.90;;;;;;;-3.12;89.54;101950.22;10408790;28;20046;-86
2023/01/27 13:52:40;;;;;;;1.77;1.20;;;;;;;-3.15;89.71;101953.22;10408456;28;20041;-85
2023/01/27 13:57:48;;;;;;;1.75;1.08;;;;;;;-3.13;89.35;101948.53;10409460;28;20049;-86
2023/01/27 14:03:13;;;;;;;3.10;1.55;;;;;;;-3.23;89.50;101950.50;10409353;28;20064;-86
2023/01/27 14:08:44;;;;;;;1.27;1.02;;;;;;;-3.22;89.45;101953.03;10409890;28;20492;-85
2023/01/27 14:14:10;;;;;;;1.88;1.17;;;;;;;-3.20;89.45;101960.91;10415090;28;20054;-86
2023/01/27 14:19:29;;;;;;;1.98;1.20;;;;;;;-3.19;89.51;101958.06;10411274;28;20526;-85
2023/01/27 14:24:37;;;;;;;1.63;1.00;;;;;;;-3.29;89.38;101968.09;10407312;28;20049;-86
2023/01/27 14:29:51;;;;;;;1.00;1.00;;;;;;;-3.22;88.95;101962.91;10408176;28;20049;-86
2023/01/27 14:35:31;;;;;;;1.23;1.10;;;;;;;-3.18;88.45;101964.28;10406644;28;20057;-85
2023/01/27 14:40:52;;;;;;;1.58;1.00;;;;;;;-3.15;88.47;101959.44;10407634;28;20054;-85
2023/01/27 14:46:06;;;;;;;1.55;0.80;;;;;;;-2.96;87.66;101958.34;10408463;28;20064;-86
2023/01/27 14:51:28;;;;;;;2.60;1.17;;;;;;;-2.93;87.16;101968.78;10407133;28;20045;-85
2023/01/27 14:56:56;;;;;;;1.38;0.95;;;;;;;-3.07;86.85;101972.06;10406374;28;20053;-86
2023/01/27 15:02:06;;;;;;;0.80;0.60;;;;;;;-3.03;87.12;101978.78;10408034;28;20049;-85
2023/01/27 15:07:42;;;;;;;1.33;1.20;;;;;;;-2.89;86.81;101988.94;10407223;28;20056;-86
2023/01/27 15:12:53;;;;;;;1.95;1.08;;;;;;;-2.95;86.06;101992.28;10405754;28;20049;-87
2023/01/27 15:18:27;;;;;;;4.13;1.27;;;;;;;-2.80;86.56;101995.19;10407022;28;20052;-85
2023/01/27 15:23:44;;;;;;;1.13;1.02;;;;;;;-2.81;85.77;101994.34;10397537;28;20046;-84
2023/01/27 15:28:47;;;;;;;2.28;1.50;;;;;;;-2.66;85.87;101980.31;10406413;28;20560;-84
2023/01/27 15:34:02;;;;;;;1.95;1.20;;;;;;;-2.64;85.87;101983.69;10404532;28;20419;-86
2023/01/27 15:39:07;;;;;;;2.28;1.45;;;;;;;-2.48;85.64;101986.44;10403872;28;20057;-85
2023/01/27 15:44:15;;;;;;;3.67;1.77;;;;;;;-2.41;85.10;101990.16;10404097;28;20417;-84
2023/01/27 15:49:26;;;;;;;1.45;1.33;;;;;;;-2.50;85.00;101988.44;10387536;28;20050;-84
2023/01/27 15:54:32;;;;;;;1.60;1.42;;;;;;;-2.45;84.90;101997.69;10403818;28;20037;-85
2023/01/27 15:59:46;;;;;;;1.50;0.95;;;;;;;-2.59;84.68;101989.44;10403644;28;20515;-86
2023/01/27 16:05:02;;;;;;;2.70;1.25;;;;;;;-2.54;85.08;101992.47;10404859;28;20141;-86
2023/01/27 16:10:08;;;;;;;1.98;1.33;;;;;;;-2.58;84.82;102004.53;10386927;28;20038;-84
2023/01/27 16:15:13;;;;;;;3.17;1.48;;;;;;;-2.58;84.96;102000.00;10387107;28;20053;-85
2023/01/27 16:20:30;;;;;;;1.55;1.02;;;;;;;-2.58;84.42;102005.38;10405152;28;20045;-85
2023/01/27 16:25:33;;;;;;;0.70;0.70;;;;;;;-2.59;84.82;101998.34;10403647;28;20428;-85
2023/01/27 16:30:41;;;;;;;2.33;1.40;;;;;;;-2.56;85.02;101997.16;10410043;28;20045;-87
2023/01/27 16:35:54;;;;;;;1.27;1.17;;;;;;;-2.55;84.60;102001.53;10403358;28;20041;-84
2023/01/27 16:41:01;;;;;;;2.05;1.30;;;;;;;-2.44;84.77;102011.97;10402801;28;20081;-85
2023/01/27 16:46:04;;;;;;;2.17;1.20;;;;;;;-2.43;84.63;102010.97;10402629;28;20508;-86
2023/01/27 16:51:13;;;;;;;3.10;1.88;;;;;;;-2.51;83.99;102014.47;10402646;28;20421;-86
2023/01/27 16:56:26;;;;;;;1.75;1.63;;;;;;;-2.54;84.13;102009.44;10404433;28;20050;-84
2023/01/27 17:01:45;;;;;;;3.25;1.65;;;;;;;-2.45;84.20;102015.66;10403671;28;20042;-84
2023/01/27 17:06:49;;;;;;;2.60;1.80;;;;;;;-2.45;84.37;102012.97;10410507;28;20061;-85
2023/01/27 17:11:52;;;;;;;2.78;1.67;;;;;;;-2.38;84.44;102011.34;10410706;28;20053;-86
2023/01/27 17:16:56;;;;;;;2.45;1.55;;;;;;;-2.46;84.30;102012.13;10410284;28;20056;-84
2023/01/27 17:22:08;;;;;;;3.58;1.40;;;;;;;-2.48;84.93;102019.53;10411530;28;20045;-85
2023/01/27 17:27:33;;;;;;;2.50;1.48;;;;;;;-2.45;85.31;102032.63;10410251;28;20049;-86
2023/01/27 17:32:37;;;;;;;1.48;0.95;;;;;;;-2.45;85.00;102034.47;10411967;28;20045;-85
2023/01/27 17:37:42;;;;;;;2.10;1.33;;;;;;;-2.36;84.72;102036.22;10409920;28;20038;-85
2023/01/27 17:42:44;;;;;;;3.08;1.42;;;;;;;-2.35;84.38;102037.06;10409599;28;20041;-86
2023/01/27 17:47:47;;;;;;;1.33;1.00;;;;;;;-2.33;84.13;102025.13;10410613;28;20520;-85
2023/01/27 17:52:51;;;;;;;1.17;0.90;;;;;;;-2.18;83.32;102030.72;10410700;28;20045;-85
2023/01/27 17:58:02;;;;;;;1.58;1.30;;;;;;;-2.19;83.37;102026.34;10410154;28;20038;-86
2023/01/27 18:03:26;;;;;;;1.88;1.73;;;;;;;-2.12;82.89;102027.38;10410544;28;20050;-86
2023/01/27 18:08:32;;;;;;;1.83;1.27;;;;;;;-2.25;82.84;102037.78;10410633;28;20058;-85
2023/01/27 18:13:37;;;;;;;4.75;1.65;;;;;;;-2.35;83.49;102037.88;10407677;28;20046;-85
2023/01/27 18:18:39;;;;;;;3.28;1.15;;;;;;;-2.44;84.02;102030.78;10408854;28;20073;-86
2023/01/27 18:23:44;;;;;;;1.42;1.25;;;;;;;-2.46;84.10;102032.78;10410231;28;20526;-85
2023/01/27 18:29:27;;;;;;;1.80;1.08;;;;;;;-2.53;84.22;102040.66;10409043;28;20042;-85
2023/01/27 18:34:31;;;;;;;1.67;1.20;;;;;;;-2.38;84.36;102032.84;10407877;28;20085;-85
2023/01/27 18:39:40;;;;;;;2.88;1.17;;;;;;;-2.40;84.15;102044.75;10406692;28;20412;-85
2023/01/27 18:44:43;;;;;;;2.40;1.20;;;;;;;-2.49;83.50;102038.50;10408688;28;20046;-85
2023/01/27 18:49:52;;;;;;;1.45;1.05;;;;;;;-2.48;83.59;102048.25;10414609;28;20412;-86
2023/01/27 18:55:13;;;;;;;2.63;1.20;;;;;;;-2.44;83.21;102049.59;10424769;28;20080;-84
2023/01/27 19:00:21;;;;;;;1.73;1.23;;;;;;;-2.41;83.09;102040.41;10426882;28;20052;-85
2023/01/27 19:05:26;;;;;;;3.10;1.37;;;;;;;-2.48;83.41;102042.88;10425049;28;20056;-86
2023/01/27 19:10:31;;;;;;;1.45;1.25;;;;;;;-2.54;84.01;102055.13;10420045;28;20052;-84
2023/01/27 19:15:38;;;;;;;2.22;1.70;;;;;;;-2.62;84.35;102043.47;10418588;28;20050;-85
2023/01/27 19:20:40;;;;;;;2.33;1.42;;;;;;;-2.56;83.88;102040.16;10408541;28;20052;-85
2023/01/27 19:25:45;;;;;;;1.75;1.42;;;;;;;-2.67;84.13;102037.75;10406883;28;20050;-85
2023/01/27 19:30:47;;;;;;;1.75;1.33;;;;;;;-2.72;84.46;102029.31;10389241;28;20049;-84
2023/01/27 19:35:54;;;;;;;1.45;1.30;;;;;;;-2.78;84.91;102037.03;10406513;28;20054;-85
2023/01/27 19:40:56;;;;;;;2.63;1.38;;;;;;;-2.77;85.12;102045.94;10404376;28;20057;-85
2023/01/27 19:45:58;;;;;;;0.80;0.80;;;;;;;-2.72;85.02;102046.28;10404816;28;20049;-86
2023/01/27 19:51:01;;;;;;;1.95;1.00;;;;;;;-2.76;84.65;102042.25;10405074;28;20394;-85
2023/01/27 19:56:03;;;;;;;2.90;1.02;;;;;;;-2.84;84.64;102034.97;10406223;28;20077;-85
2023/01/27 20:01:05;;;;;;;1.30;1.00;;;;;;;-2.89;84.98;102036.44;10404508;28;20046;-85
2023/01/27 20:06:16;;;;;;;1.40;0.50;;;;;;;-3.00;84.71;102032.19;10404554;28;20041;-85
2023/01/27 20:11:31;;;;;;;0.70;0.70;;;;;;;-3.03;84.90;102041.41;10404121;28;20046;-84
2023/01/27 20:16:33;;;;;;;0.40;0.40;;;;;;;-3.00;85.10;102029.50;10405234;28;20054;-85
2023/01/27 20:21:35;;;;;;;1.70;0.98;;;;;;;-3.02;85.40;102039.56;10404745;28;20052;-84
2023/01/27 20:26:38;;;;;;;2.15;0.85;;;;;;;-3.03;85.78;102037.88;10405208;28;20432;-86
2023/01/27 20:31:41;;;;;;;1.67;0.50;;;;;;;-3.05;85.95;102039.88;10406814;28;20050;-86
2023/01/27 20:36:43;;;;;;;0.50;0.50;;;;;;;-3.15;86.17;102056.06;10405389;28;20500;-85
2023/01/27 20:41:45;;;;;;;0.70;0.52;;;;;;;-3.22;86.14;102048.81;10404072;28;20049;-85
2023/01/27 20:46:48;;;;;;;0.45;0.45;;;;;;;-3.30;86.26;102041.53;10408345;28;20420;-86
2023/01/27 20:51:51;;;;;;;0.57;0.30;;;;;;;-3.37;86.21;102046.69;10406351;28;20042;-86
2023/01/27 20:56:53;;;;;;;0.40;0.40;;;;;;;-3.38;86.38;102034.25;10405118;28;20424;-85
2023/01/27 21:01:55;;;;;;;0.20;0.20;;;;;;;-3.44;86.08;102028.69;10404297;28;20068;-84
2023/01/27 21:06:57;;;;;;;2.58;0.40;;;;;;;-3.41;86.79;102023.00;10404493;28;20045;-86
2023/01/27 21:11:59;;;;;;;0.40;0.40;;;;;;;-3.35;86.48;102017.00;10404407;28;20046;-85
2023/01/27 21:17:02;;;;;;;0.40;0.40;;;;;;;-3.36;86.35;102021.53;10408187;28;20056;-85
2023/01/27 21:22:04;;;;;;;1.23;0.60;;;;;;;-3.45;86.45;102027.84;10415424;28;20045;-84
2023/01/27 21:27:07;;;;;;;0.82;0.45;;;;;;;-3.46;86.70;102026.16;10416599;28;20058;-84
2023/01/27 21:32:09;;;;;;;0.40;0.40;;;;;;;-3.44;86.62;102013.44;10404542;28;20046;-85
2023/01/27 21:37:11;;;;;;;0.90;0.60;;;;;;;-3.35;87.07;102015.16;10403254;28;20050;-85
2023/01/27 21:47:17;;;;;;;0.60;0.60;;;;;;;-3.38;86.79;101999.38;10402726;28;20412;-86
2023/01/27 21:52:21;;;;;;;0.70;0.70;;;;;;;-3.44;86.94;102002.69;10409641;28;20054;-86
2023/01/27 21:57:23;;;;;;;2.47;0.73;;;;;;;-3.47;86.68;102003.00;10410222;28;20057;-85
2023/01/27 22:02:26;;;;;;;1.13;0.77;;;;;;;-3.50;86.83;102008.66;10409791;28;20042;-85
2023/01/27 22:07:32;;;;;;;0.77;0.52;;;;;;;-3.40;86.79;102000.53;10409341;28;20500;-84
2023/01/27 22:12:35;;;;;;;1.23;0.85;;;;;;;-3.42;87.06;101995.34;10408272;28;20041;-87
2023/01/27 22:17:37;;;;;;;1.48;0.70;;;;;;;-3.47;87.02;101992.28;10409148;28;20038;-86
2023/01/27 22:22:40;;;;;;;0.40;0.40;;;;;;;-3.49;87.12;101988.88;10407849;28;20416;-86
2023/01/27 22:27:43;;;;;;;1.73;0.60;;;;;;;-3.50;87.55;101981.00;10408759;28;20057;-85
2023/01/27 22:32:46;;;;;;;0.30;0.30;;;;;;;-3.40;87.32;101979.06;10391816;28;20049;-85
2023/01/27 22:37:48;;;;;;;1.45;0.50;;;;;;;-3.42;87.30;101995.34;10407814;28;20560;-83
2023/01/27 22:42:51;;;;;;;1.52;0.60;;;;;;;-3.51;86.73;101996.25;10408217;28;20434;-86
2023/01/27 22:47:54;;;;;;;0.30;0.30;;;;;;;-3.52;86.53;101981.16;10409870;28;20077;-85
2023/01/27 22:52:57;;;;;;;0.63;0.45;;;;;;;-3.46;86.67;101980.56;10391495;28;20053;-85
2023/01/27 22:57:59;;;;;;;0.80;0.50;;;;;;;-3.38;86.55;101979.75;10407796;28;20497;-85
2023/01/27 23:03:01;;;;;;;1.45;0.45;;;;;;;-3.29;86.26;101981.50;10407754;28;20053;-86
2023/01/27 23:08:04;;;;;;;0.60;0.55;;;;;;;-3.35;86.07;101969.53;10409521;28;20053;-86
2023/01/27 23:13:06;;;;;;;0.22;0.22;;;;;;;-3.41;85.84;101969.34;10420924;28;20038;-86
2023/01/27 23:18:11;;;;;;;0.70;0.60;;;;;;;-3.49;86.18;101983.53;10412657;28;20420;-87
2023/01/27 23:23:14;;;;;;;0.38;0.30;;;;;;;-3.55;86.32;101973.41;10407177;28;20050;-85
2023/01/27 23:28:18;;;;;;;1.42;0.50;;;;;;;-3.49;86.86;101961.22;10406872;28;20053;-84
2023/01/27 23:33:20;;;;;;;0.95;0.60;;;;;;;-3.52;86.66;101951.63;10404285;28;20519;-84
2023/01/27 23:38:22;;;;;;;1.67;0.63;;;;;;;-3.53;86.63;101944.59;10406323;28;20038;-84
2023/01/27 23:43:25;;;;;;;1.27;1.00;;;;;;;-3.58;86.58;101946.06;10405897;28;20042;-86
2023/01/27 23:48:28;;;;;;;0.47;0.47;;;;;;;-3.59;87.19;101949.75;10405436;28;20057;-86
2023/01/27 23:53:30;;;;;;;1.75;0.70;;;;;;;-3.65;86.73;101945.84;10404337;28;20046;-85
2023/01/27 23:58:32;;;;;;;0.50;0.50;;;;;;;-3.60;86.70;101937.34;10405420;28;20416;-85
